createdAt,value
2023-07-02T00:08:55.085Z,16.9
2023-07-02T00:18:55.282Z,16.9
2023-07-02T00:28:55.489Z,16.8
2023-07-02T00:38:55.682Z,16.8
2023-07-02T00:48:55.867Z,16.8
2023-07-02T00:58:56.083Z,16.9
2023-07-02T01:08:56.273Z,16.7
2023-07-02T01:18:56.466Z,16.6
2023-07-02T01:28:56.666Z,16.6
2023-07-02T01:38:56.893Z,16.6
2023-07-02T01:48:57.067Z,16.6
2023-07-02T01:58:57.277Z,16.6
2023-07-02T02:08:57.465Z,16.6
2023-07-02T02:18:57.674Z,16.6
2023-07-02T02:28:57.854Z,16.6
2023-07-02T02:38:58.062Z,16.6
2023-07-02T02:48:58.267Z,16.6
2023-07-02T02:58:58.445Z,16.7
2023-07-02T03:08:58.650Z,16.6
2023-07-02T03:18:58.846Z,16.5
2023-07-02T03:28:59.059Z,16.4
2023-07-02T03:48:59.444Z,16.1
2023-07-02T03:58:59.641Z,16
2023-07-02T04:08:59.834Z,15.9
2023-07-02T04:19:00.031Z,15.9
2023-07-02T04:29:00.271Z,15.9
2023-07-02T04:39:00.434Z,15.9
2023-07-02T04:49:00.664Z,16.1
2023-07-02T04:59:00.851Z,16.3
2023-07-02T05:09:01.045Z,16.3
2023-07-02T05:19:01.225Z,16.4
2023-07-02T05:29:01.408Z,16.5
2023-07-02T05:39:01.648Z,16.6
2023-07-02T05:49:01.820Z,17
2023-07-02T05:59:02.008Z,17.3
2023-07-02T06:09:02.204Z,17.6
2023-07-02T06:19:02.520Z,17.9
2023-07-02T06:29:02.600Z,18.2
2023-07-02T08:19:04.771Z,19
2023-07-02T08:29:05.013Z,19.4
2023-07-02T08:39:05.162Z,19.1
2023-07-02T08:59:05.552Z,20.1
2023-07-02T09:09:05.770Z,19.7
2023-07-02T09:19:05.958Z,19.5
2023-07-02T09:39:06.338Z,20.8
2023-07-02T10:09:06.922Z,20.5
2023-07-02T10:29:07.341Z,20.5
2023-07-02T10:39:07.601Z,20.8
2023-07-02T10:49:07.746Z,20.9
2023-07-02T10:59:07.903Z,21.3
2023-07-02T11:19:08.296Z,21.5
2023-07-02T11:29:08.492Z,21.4
2023-07-02T11:39:08.692Z,21.9
2023-07-02T11:49:08.904Z,21.9
2023-07-02T11:59:09.090Z,21.6
2023-07-02T12:09:09.343Z,22.2
2023-07-02T12:19:09.504Z,22.3
2023-07-02T12:29:09.676Z,21.2
2023-07-02T12:39:09.873Z,21.3
2023-07-02T12:49:10.084Z,22.5
2023-07-02T12:59:10.271Z,22.2
2023-07-02T13:09:10.463Z,21.9
2023-07-02T13:29:10.856Z,22
2023-07-02T13:39:11.048Z,21.5
2023-07-02T13:49:11.236Z,21.4
2023-07-02T13:59:11.424Z,22.5
2023-07-02T14:09:11.639Z,22.5
2023-07-02T14:19:11.825Z,21.8
2023-07-02T14:29:12.048Z,21.8
2023-07-02T14:39:12.226Z,22.1
2023-07-02T14:49:12.422Z,22.2
2023-07-02T14:59:12.623Z,22
2023-07-02T15:09:12.809Z,21.6
2023-07-02T15:19:13.013Z,21.5
2023-07-02T15:29:13.209Z,22.4
2023-07-02T15:39:13.392Z,22.4
2023-07-02T15:49:13.648Z,21.8
2023-07-02T15:59:13.810Z,22
2023-07-02T16:09:13.992Z,21.7
2023-07-02T16:19:14.229Z,21.9
2023-07-02T16:29:14.368Z,21.8
2023-07-02T16:39:14.595Z,21.5
2023-07-02T16:49:14.786Z,21.7
2023-07-02T16:59:14.961Z,21.3
2023-07-02T17:19:15.372Z,20.8
2023-07-02T17:29:15.563Z,21
2023-07-02T17:39:15.743Z,20.8
2023-07-02T17:49:15.957Z,20.3
2023-07-02T17:59:16.137Z,20.1
2023-07-02T18:09:16.334Z,20
2023-07-02T18:19:16.552Z,19.7
2023-07-02T18:29:16.750Z,19.6
2023-07-02T18:39:16.942Z,19.5
2023-07-02T18:49:17.135Z,19.5
2023-07-02T18:59:17.383Z,19.4
2023-07-02T19:09:17.508Z,19.3
2023-07-02T19:19:17.727Z,19.3
2023-07-02T19:29:17.921Z,19.1
2023-07-02T19:39:18.102Z,19
2023-07-02T19:49:18.296Z,18.8
2023-07-02T19:59:18.594Z,18.6
2023-07-02T20:09:18.704Z,18.5
2023-07-02T20:19:18.907Z,18.2
2023-07-02T20:59:19.694Z,17.7
2023-07-02T21:09:19.894Z,17.5
2023-07-02T22:19:21.250Z,16.3
2023-07-02T23:59:23.234Z,15.4
